sensor_id;sensor_type;location;lat;lon;timestamp;pressure;altitude;pressure_sealevel;temperature;humidity
55044;BME280;54902;50.420;18.854;2023-03-15T00:00:27;100131.09;;;5.59;69.35
55044;BME280;54902;50.420;18.854;2023-03-15T00:00:58;100134.04;;;5.56;69.36
55044;BME280;54902;50.420;18.854;2023-03-15T00:01:29;100126.02;;;5.55;69.39
55044;BME280;54902;50.420;18.854;2023-03-15T00:02:00;100131.66;;;5.52;69.33
55044;BME280;54902;50.420;18.854;2023-03-15T00:02:31;100148.01;;;5.50;69.28
55044;BME280;54902;50.420;18.854;2023-03-15T00:03:02;100140.12;;;5.47;69.34
55044;BME280;54902;50.420;18.854;2023-03-15T00:03:34;100143.91;;;5.45;69.38
55044;BME280;54902;50.420;18.854;2023-03-15T00:04:09;100133.32;;;5.42;69.41
55044;BME280;54902;50.420;18.854;2023-03-15T00:04:41;100137.13;;;5.39;69.44
55044;BME280;54902;50.420;18.854;2023-03-15T00:05:12;100139.05;;;5.37;69.52
55044;BME280;54902;50.420;18.854;2023-03-15T00:05:44;100149.16;;;5.35;69.59
55044;BME280;54902;50.420;18.854;2023-03-15T00:06:16;100133.10;;;5.32;69.64
55044;BME280;54902;50.420;18.854;2023-03-15T00:06:46;100143.20;;;5.30;69.67
55044;BME280;54902;50.420;18.854;2023-03-15T00:07:17;100142.42;;;5.28;69.70
55044;BME280;54902;50.420;18.854;2023-03-15T00:07:48;100148.84;;;5.27;69.75
55044;BME280;54902;50.420;18.854;2023-03-15T00:08:19;100150.90;;;5.24;69.84
55044;BME280;54902;50.420;18.854;2023-03-15T00:08:51;100156.43;;;5.22;69.90
55044;BME280;54902;50.420;18.854;2023-03-15T00:09:22;100170.08;;;5.21;69.94
55044;BME280;54902;50.420;18.854;2023-03-15T00:09:54;100164.86;;;5.18;69.99
55044;BME280;54902;50.420;18.854;2023-03-15T00:10:25;100173.09;;;5.17;70.03
55044;BME280;54902;50.420;18.854;2023-03-15T00:10:56;100171.47;;;5.14;70.07
55044;BME280;54902;50.420;18.854;2023-03-15T00:11:29;100171.58;;;5.13;70.17
55044;BME280;54902;50.420;18.854;2023-03-15T00:12:03;100175.30;;;5.12;70.41
55044;BME280;54902;50.420;18.854;2023-03-15T00:12:34;100176.26;;;5.11;70.59
55044;BME280;54902;50.420;18.854;2023-03-15T00:13:05;100182.64;;;5.10;70.67
55044;BME280;54902;50.420;18.854;2023-03-15T00:13:36;100184.61;;;5.08;70.64
55044;BME280;54902;50.420;18.854;2023-03-15T00:14:07;100189.13;;;5.07;70.67
55044;BME280;54902;50.420;18.854;2023-03-15T00:14:38;100189.13;;;5.07;70.75
55044;BME280;54902;50.420;18.854;2023-03-15T00:15:12;100185.68;;;5.05;70.76
55044;BME280;54902;50.420;18.854;2023-03-15T00:15:47;100203.75;;;5.05;70.66
55044;BME280;54902;50.420;18.854;2023-03-15T00:16:19;100211.01;;;5.04;70.63
55044;BME280;54902;50.420;18.854;2023-03-15T00:16:50;100203.98;;;5.02;70.65
55044;BME280;54902;50.420;18.854;2023-03-15T00:17:21;100198.56;;;5.02;70.67
55044;BME280;54902;50.420;18.854;2023-03-15T00:17:54;100201.27;;;5.02;70.62
55044;BME280;54902;50.420;18.854;2023-03-15T00:18:26;100204.09;;;5.00;70.56
55044;BME280;54902;50.420;18.854;2023-03-15T00:18:58;100219.44;;;5.00;70.52
55044;BME280;54902;50.420;18.854;2023-03-15T00:19:29;100217.73;;;4.99;70.50
55044;BME280;54902;50.420;18.854;2023-03-15T00:20:00;100223.26;;;4.97;70.47
55044;BME280;54902;50.420;18.854;2023-03-15T00:20:31;100226.93;;;4.96;70.53
55044;BME280;54902;50.420;18.854;2023-03-15T00:21:02;100217.93;;;4.96;70.57
55044;BME280;54902;50.420;18.854;2023-03-15T00:21:33;100230.70;;;4.94;70.58
55044;BME280;54902;50.420;18.854;2023-03-15T00:22:04;100229.94;;;4.92;70.60
55044;BME280;54902;50.420;18.854;2023-03-15T00:22:35;100236.23;;;4.92;70.63
55044;BME280;54902;50.420;18.854;2023-03-15T00:23:07;100236.34;;;4.91;70.68
55044;BME280;54902;50.420;18.854;2023-03-15T00:23:38;100240.02;;;4.90;70.74
55044;BME280;54902;50.420;18.854;2023-03-15T00:24:09;100240.02;;;4.90;70.77
55044;BME280;54902;50.420;18.854;2023-03-15T00:24:43;100244.65;;;4.88;70.81
55044;BME280;54902;50.420;18.854;2023-03-15T00:25:14;100242.95;;;4.87;70.85
55044;BME280;54902;50.420;18.854;2023-03-15T00:25:47;100251.06;;;4.87;70.88
55044;BME280;54902;50.420;18.854;2023-03-15T00:26:19;100239.46;;;4.85;70.87
55044;BME280;54902;50.420;18.854;2023-03-15T00:26:50;100248.55;;;4.84;70.92
55044;BME280;54902;50.420;18.854;2023-03-15T00:27:21;100244.99;;;4.83;70.96
55044;BME280;54902;50.420;18.854;2023-03-15T00:27:52;100249.54;;;4.83;70.98
55044;BME280;54902;50.420;18.854;2023-03-15T00:28:22;100254.95;;;4.83;70.94
55044;BME280;54902;50.420;18.854;2023-03-15T00:28:53;100252.33;;;4.81;70.94
55044;BME280;54902;50.420;18.854;2023-03-15T00:29:24;100255.03;;;4.81;70.95
55044;BME280;54902;50.420;18.854;2023-03-15T00:29:55;100252.44;;;4.80;70.95
55044;BME280;54902;50.420;18.854;2023-03-15T00:30:26;100261.52;;;4.79;70.96
55044;BME280;54902;50.420;18.854;2023-03-15T00:31:40;100265.33;;;4.76;71.06
55044;BME280;54902;50.420;18.854;2023-03-15T00:32:11;100266.19;;;4.77;71.08
55044;BME280;54902;50.420;18.854;2023-03-15T00:32:42;100269.85;;;4.76;71.11
55044;BME280;54902;50.420;18.854;2023-03-15T00:33:13;100268.11;;;4.75;71.07
55044;BME280;54902;50.420;18.854;2023-03-15T00:33:45;100278.08;;;4.74;71.05
55044;BME280;54902;50.420;18.854;2023-03-15T00:34:17;100275.37;;;4.74;71.03
55044;BME280;54902;50.420;18.854;2023-03-15T00:34:56;100276.34;;;4.73;71.03
55044;BME280;54902;50.420;18.854;2023-03-15T00:35:27;100275.48;;;4.73;71.06
55044;BME280;54902;50.420;18.854;2023-03-15T00:35:58;100285.52;;;4.71;71.04
55044;BME280;54902;50.420;18.854;2023-03-15T00:36:28;100281.96;;;4.70;71.11
55044;BME280;54902;50.420;18.854;2023-03-15T00:37:01;100286.52;;;4.70;71.13
55044;BME280;54902;50.420;18.854;2023-03-15T00:37:32;100284.77;;;4.69;71.10
55044;BME280;54902;50.420;18.854;2023-03-15T00:38:03;100289.30;;;4.68;71.14
55044;BME280;54902;50.420;18.854;2023-03-15T00:38:35;100284.77;;;4.69;71.16
55044;BME280;54902;50.420;18.854;2023-03-15T00:39:07;100285.64;;;4.69;71.26
55044;BME280;54902;50.420;18.854;2023-03-15T00:39:37;100287.59;;;4.67;71.25
55044;BME280;54902;50.420;18.854;2023-03-15T00:40:11;100278.59;;;4.67;71.30
55044;BME280;54902;50.420;18.854;2023-03-15T00:40:42;100286.70;;;4.67;71.31
55044;BME280;54902;50.420;18.854;2023-03-15T00:41:15;100278.59;;;4.67;71.39
55044;BME280;54902;50.420;18.854;2023-03-15T00:41:47;100288.45;;;4.68;71.45
55044;BME280;54902;50.420;18.854;2023-03-15T00:42:18;100286.70;;;4.67;71.56
55044;BME280;54902;50.420;18.854;2023-03-15T00:42:49;100279.59;;;4.66;71.53
55044;BME280;54902;50.420;18.854;2023-03-15T00:43:20;100282.29;;;4.66;71.51
55044;BME280;54902;50.420;18.854;2023-03-15T00:43:51;100286.92;;;4.64;71.35
55044;BME280;54902;50.420;18.854;2023-03-15T00:44:22;100284.00;;;4.67;71.49
55044;BME280;54902;50.420;18.854;2023-03-15T00:44:54;100286.70;;;4.67;71.42
55044;BME280;54902;50.420;18.854;2023-03-15T00:45:25;100289.52;;;4.65;71.38
55044;BME280;54902;50.420;18.854;2023-03-15T00:45:57;100293.12;;;4.66;71.39
55044;BME280;54902;50.420;18.854;2023-03-15T00:46:28;100294.07;;;4.65;71.31
55044;BME280;54902;50.420;18.854;2023-03-15T00:46:59;100278.80;;;4.64;71.35
55044;BME280;54902;50.420;18.854;2023-03-15T00:47:30;100293.29;;;4.63;71.31
55044;BME280;54902;50.420;18.854;2023-03-15T00:48:01;100296.89;;;4.63;71.29
55044;BME280;54902;50.420;18.854;2023-03-15T00:48:33;100291.59;;;4.62;71.25
55044;BME280;54902;50.420;18.854;2023-03-15T00:49:07;100294.30;;;4.62;71.24
55044;BME280;54902;50.420;18.854;2023-03-15T00:49:39;100305.11;;;4.62;71.24
55044;BME280;54902;50.420;18.854;2023-03-15T00:50:10;100301.63;;;4.60;71.23
55044;BME280;54902;50.420;18.854;2023-03-15T00:50:41;100296.21;;;4.60;71.22
55044;BME280;54902;50.420;18.854;2023-03-15T00:51:16;100305.30;;;4.59;71.20
55044;BME280;54902;50.420;18.854;2023-03-15T00:51:47;100304.44;;;4.59;71.18
55044;BME280;54902;50.420;18.854;2023-03-15T00:52:18;100299.04;;;4.59;71.16
55044;BME280;54902;50.420;18.854;2023-03-15T00:52:49;100305.40;;;4.58;71.15
55044;BME280;54902;50.420;18.854;2023-03-15T00:53:20;100306.36;;;4.57;71.13
55044;BME280;54902;50.420;18.854;2023-03-15T00:53:52;100322.70;;;4.55;71.10
55044;BME280;54902;50.420;18.854;2023-03-15T00:54:23;100319.14;;;4.55;71.07
55044;BME280;54902;50.420;18.854;2023-03-15T00:54:54;100307.44;;;4.54;71.05
55044;BME280;54902;50.420;18.854;2023-03-15T00:55:25;100321.95;;;4.53;71.08
55044;BME280;54902;50.420;18.854;2023-03-15T00:55:56;100326.47;;;4.53;71.06
55044;BME280;54902;50.420;18.854;2023-03-15T00:56:28;100329.28;;;4.51;71.06
55044;BME280;54902;50.420;18.854;2023-03-15T00:57:00;100324.77;;;4.52;71.05
55044;BME280;54902;50.420;18.854;2023-03-15T00:57:32;100330.23;;;4.50;71.02
55044;BME280;54902;50.420;18.854;2023-03-15T00:58:06;100329.50;;;4.48;71.03
55044;BME280;54902;50.420;18.854;2023-03-15T00:58:37;100333.05;;;4.49;71.01
55044;BME280;54902;50.420;18.854;2023-03-15T00:59:08;100323.23;;;4.48;71.00
55044;BME280;54902;50.420;18.854;2023-03-15T00:59:39;100322.34;;;4.47;70.99
55044;BME280;54902;50.420;18.854;2023-03-15T01:00:16;100337.71;;;4.47;70.96
55044;BME280;54902;50.420;18.854;2023-03-15T01:00:52;100335.11;;;4.45;70.95
55044;BME280;54902;50.420;18.854;2023-03-15T01:01:25;100335.20;;;4.44;71.00
55044;BME280;54902;50.420;18.854;2023-03-15T01:01:57;100341.59;;;4.43;71.00
55044;BME280;54902;50.420;18.854;2023-03-15T01:02:28;100340.70;;;4.42;70.98
55044;BME280;54902;50.420;18.854;2023-03-15T01:02:59;100346.11;;;4.42;71.03
55044;BME280;54902;50.420;18.854;2023-03-15T01:03:30;100346.21;;;4.41;71.08
55044;BME280;54902;50.420;18.854;2023-03-15T01:04:01;100353.47;;;4.40;71.07
55044;BME280;54902;50.420;18.854;2023-03-15T01:04:32;100348.16;;;4.39;71.09
55044;BME280;54902;50.420;18.854;2023-03-15T01:05:05;100355.39;;;4.38;71.16
55044;BME280;54902;50.420;18.854;2023-03-15T01:05:36;100343.73;;;4.38;71.21
55044;BME280;54902;50.420;18.854;2023-03-15T01:06:09;100359.09;;;4.37;71.21
55044;BME280;54902;50.420;18.854;2023-03-15T01:06:40;100352.79;;;4.37;71.20
55044;BME280;54902;50.420;18.854;2023-03-15T01:07:12;100351.94;;;4.36;71.24
55044;BME280;54902;50.420;18.854;2023-03-15T01:07:42;100345.64;;;4.36;71.21
55044;BME280;54902;50.420;18.854;2023-03-15T01:08:15;100353.86;;;4.34;71.24
55044;BME280;54902;50.420;18.854;2023-03-15T01:08:46;100353.86;;;4.34;71.28
55044;BME280;54902;50.420;18.854;2023-03-15T01:09:17;100357.55;;;4.33;71.30
55044;BME280;54902;50.420;18.854;2023-03-15T01:09:48;100358.41;;;4.34;71.30
55044;BME280;54902;50.420;18.854;2023-03-15T01:10:19;100357.55;;;4.33;71.26
55044;BME280;54902;50.420;18.854;2023-03-15T01:10:49;100362.08;;;4.33;71.30
55044;BME280;54902;50.420;18.854;2023-03-15T01:11:23;100363.04;;;4.32;71.27
55044;BME280;54902;50.420;18.854;2023-03-15T01:11:55;100359.47;;;4.31;71.24
55044;BME280;54902;50.420;18.854;2023-03-15T01:12:27;100371.25;;;4.30;71.25
55044;BME280;54902;50.420;18.854;2023-03-15T01:12:59;100365.84;;;4.30;71.23
55044;BME280;54902;50.420;18.854;2023-03-15T01:13:30;100365.09;;;4.28;71.23
55044;BME280;54902;50.420;18.854;2023-03-15T01:14:01;100359.68;;;4.28;71.27
55044;BME280;54902;50.420;18.854;2023-03-15T01:14:36;100362.39;;;4.28;71.33
55044;BME280;54902;50.420;18.854;2023-03-15T01:15:12;100357.94;;;4.27;71.36
55044;BME280;54902;50.420;18.854;2023-03-15T01:15:45;100366.05;;;4.27;71.37
55044;BME280;54902;50.420;18.854;2023-03-15T01:16:18;100370.61;;;4.27;71.50
55044;BME280;54902;50.420;18.854;2023-03-15T01:16:50;100367.80;;;4.28;71.55
55044;BME280;54902;50.420;18.854;2023-03-15T01:17:21;100369.61;;;4.28;71.71
55044;BME280;54902;50.420;18.854;2023-03-15T01:17:52;100366.91;;;4.28;71.61
55044;BME280;54902;50.420;18.854;2023-03-15T01:18:23;100368.75;;;4.27;71.64
55044;BME280;54902;50.420;18.854;2023-03-15T01:18:54;100373.30;;;4.27;71.61
55044;BME280;54902;50.420;18.854;2023-03-15T01:19:25;100371.46;;;4.27;71.55
55044;BME280;54902;50.420;18.854;2023-03-15T01:19:57;100370.61;;;4.27;71.55
55044;BME280;54902;50.420;18.854;2023-03-15T01:20:28;100378.72;;;4.27;71.51
55044;BME280;54902;50.420;18.854;2023-03-15T01:20:59;100370.66;;;4.25;71.51
55044;BME280;54902;50.420;18.854;2023-03-15T01:21:30;100375.13;;;4.26;71.51
55044;BME280;54902;50.420;18.854;2023-03-15T01:22:02;100376.97;;;4.26;71.59
55044;BME280;54902;50.420;18.854;2023-03-15T01:22:33;100376.08;;;4.25;71.62
55044;BME280;54902;50.420;18.854;2023-03-15T01:23:04;100379.67;;;4.26;71.71
55044;BME280;54902;50.420;18.854;2023-03-15T01:23:35;100379.67;;;4.26;71.67
55044;BME280;54902;50.420;18.854;2023-03-15T01:24:10;100373.38;;;4.25;71.62
55044;BME280;54902;50.420;18.854;2023-03-15T01:24:42;100381.48;;;4.25;71.62
55044;BME280;54902;50.420;18.854;2023-03-15T01:25:13;100385.19;;;4.24;71.61
55044;BME280;54902;50.420;18.854;2023-03-15T01:25:44;100385.19;;;4.24;71.71
55044;BME280;54902;50.420;18.854;2023-03-15T01:26:16;100378.03;;;4.23;71.70
55044;BME280;54902;50.420;18.854;2023-03-15T01:26:47;100385.19;;;4.24;71.71
55044;BME280;54902;50.420;18.854;2023-03-15T01:27:18;100389.70;;;4.24;71.65
55044;BME280;54902;50.420;18.854;2023-03-15T01:27:49;100393.40;;;4.23;71.67
55044;BME280;54902;50.420;18.854;2023-03-15T01:28:20;100387.98;;;4.23;71.65
55044;BME280;54902;50.420;18.854;2023-03-15T01:28:51;100399.66;;;4.23;71.73
55044;BME280;54902;50.420;18.854;2023-03-15T01:29:22;100390.70;;;4.23;71.78
55044;BME280;54902;50.420;18.854;2023-03-15T01:29:52;100392.51;;;4.22;71.75
55044;BME280;54902;50.420;18.854;2023-03-15T01:30:23;100391.65;;;4.22;71.78
55044;BME280;54902;50.420;18.854;2023-03-15T01:30:54;100395.21;;;4.22;71.81
55044;BME280;54902;50.420;18.854;2023-03-15T01:31:27;100395.21;;;4.22;71.76
55044;BME280;54902;50.420;18.854;2023-03-15T01:31:59;100396.16;;;4.21;71.75
55044;BME280;54902;50.420;18.854;2023-03-15T01:32:30;100404.27;;;4.21;71.74
55044;BME280;54902;50.420;18.854;2023-03-15T01:33:01;100406.98;;;4.21;71.74
55044;BME280;54902;50.420;18.854;2023-03-15T01:33:32;100404.27;;;4.21;71.79
55044;BME280;54902;50.420;18.854;2023-03-15T01:34:04;100401.58;;;4.21;71.79
55044;BME280;54902;50.420;18.854;2023-03-15T01:34:35;100417.79;;;4.21;71.82
55044;BME280;54902;50.420;18.854;2023-03-15T01:35:07;100411.54;;;4.21;71.76
55044;BME280;54902;50.420;18.854;2023-03-15T01:35:38;100418.79;;;4.20;71.74
55044;BME280;54902;50.420;18.854;2023-03-15T01:36:10;100418.88;;;4.19;71.71
55044;BME280;54902;50.420;18.854;2023-03-15T01:36:41;100423.40;;;4.18;71.66
55044;BME280;54902;50.420;18.854;2023-03-15T01:37:12;100424.30;;;4.19;71.70
55044;BME280;54902;50.420;18.854;2023-03-15T01:37:44;100427.95;;;4.18;71.66
55044;BME280;54902;50.420;18.854;2023-03-15T01:38:15;100427.95;;;4.18;71.64
55044;BME280;54902;50.420;18.854;2023-03-15T01:38:46;100426.21;;;4.17;71.71
55044;BME280;54902;50.420;18.854;2023-03-15T01:39:19;100428.91;;;4.17;71.70
55044;BME280;54902;50.420;18.854;2023-03-15T01:39:51;100425.35;;;4.16;71.77
55044;BME280;54902;50.420;18.854;2023-03-15T01:40:22;100428.05;;;4.16;71.78
55044;BME280;54902;50.420;18.854;2023-03-15T01:40:52;100425.35;;;4.16;71.83
55044;BME280;54902;50.420;18.854;2023-03-15T01:41:24;100430.76;;;4.16;71.81
55044;BME280;54902;50.420;18.854;2023-03-15T01:41:57;100429.01;;;4.15;71.77
55044;BME280;54902;50.420;18.854;2023-03-15T01:42:28;100427.27;;;4.14;71.77
55044;BME280;54902;50.420;18.854;2023-03-15T01:43:43;100440.68;;;4.16;71.80
55044;BME280;54902;50.420;18.854;2023-03-15T01:44:18;100439.83;;;4.15;71.76
55044;BME280;54902;50.420;18.854;2023-03-15T01:44:54;100438.07;;;4.14;71.82
55044;BME280;54902;50.420;18.854;2023-03-15T01:46:54;100438.07;;;4.14;71.76
55044;BME280;54902;50.420;18.854;2023-03-15T01:47:26;100436.34;;;4.13;71.76
55044;BME280;54902;50.420;18.854;2023-03-15T01:47:58;100440.78;;;4.14;71.72
55044;BME280;54902;50.420;18.854;2023-03-15T01:49:22;100433.63;;;4.13;71.54
55044;BME280;54902;50.420;18.854;2023-03-15T01:50:03;100433.63;;;4.13;71.47
55044;BME280;54902;50.420;18.854;2023-03-15T01:50:36;100438.07;;;4.14;71.39
55044;BME280;54902;50.420;18.854;2023-03-15T01:52:36;100449.09;;;4.11;71.31
55044;BME280;54902;50.420;18.854;2023-03-15T01:53:08;100448.20;;;4.11;71.31
55044;BME280;54902;50.420;18.854;2023-03-15T01:53:42;100446.50;;;4.10;71.30
55044;BME280;54902;50.420;18.854;2023-03-15T01:54:24;100445.60;;;4.09;71.30
55044;BME280;54902;50.420;18.854;2023-03-15T01:55:05;100455.55;;;4.09;71.31
55044;BME280;54902;50.420;18.854;2023-03-15T01:55:39;100445.60;;;4.09;71.29
55044;BME280;54902;50.420;18.854;2023-03-15T01:56:11;100454.70;;;4.08;71.28
55044;BME280;54902;50.420;18.854;2023-03-15T01:56:47;100454.70;;;4.08;71.24
55044;BME280;54902;50.420;18.854;2023-03-15T01:57:28;100448.40;;;4.08;71.14
55044;BME280;54902;50.420;18.854;2023-03-15T01:58:01;100460.10;;;4.08;71.06
55044;BME280;54902;50.420;18.854;2023-03-15T01:58:37;100456.52;;;4.08;71.05
55044;BME280;54902;50.420;18.854;2023-03-15T01:59:16;100463.76;;;4.07;71.01
55044;BME280;54902;50.420;18.854;2023-03-15T01:59:55;100468.27;;;4.07;71.03
55044;BME280;54902;50.420;18.854;2023-03-15T02:00:28;100461.16;;;4.06;71.03
55044;BME280;54902;50.420;18.854;2023-03-15T02:00:59;100462.97;;;4.05;71.05
55044;BME280;54902;50.420;18.854;2023-03-15T02:01:34;100458.53;;;4.04;71.05
55044;BME280;54902;50.420;18.854;2023-03-15T02:02:07;100459.41;;;4.05;71.04
55044;BME280;54902;50.420;18.854;2023-03-15T02:02:48;100459.52;;;4.03;71.07
55044;BME280;54902;50.420;18.854;2023-03-15T02:03:35;100463.08;;;4.04;71.08
55044;BME280;54902;50.420;18.854;2023-03-15T02:04:06;100456.82;;;4.03;71.08
55044;BME280;54902;50.420;18.854;2023-03-15T02:05:34;100460.48;;;4.03;71.08
55044;BME280;54902;50.420;18.854;2023-03-15T02:06:09;100457.98;;;4.00;71.09
55044;BME280;54902;50.420;18.854;2023-03-15T02:06:41;100457.87;;;4.01;71.08
55044;BME280;54902;50.420;18.854;2023-03-15T02:07:17;100459.69;;;4.01;71.10
55044;BME280;54902;50.420;18.854;2023-03-15T02:07:50;100452.47;;;4.01;71.20
55044;BME280;54902;50.420;18.854;2023-03-15T02:08:28;100445.32;;;4.00;71.26
55044;BME280;54902;50.420;18.854;2023-03-15T02:09:07;100452.47;;;4.01;71.27
55044;BME280;54902;50.420;18.854;2023-03-15T02:10:26;100448.88;;;4.01;71.27
55044;BME280;54902;50.420;18.854;2023-03-15T02:11:01;100468.68;;;4.01;71.25
55044;BME280;54902;50.420;18.854;2023-03-15T02:11:34;100454.28;;;4.01;71.25
55044;BME280;54902;50.420;18.854;2023-03-15T02:12:05;100447.17;;;4.00;71.22
55044;BME280;54902;50.420;18.854;2023-03-15T02:12:42;100452.57;;;4.00;71.23
55044;BME280;54902;50.420;18.854;2023-03-15T02:13:18;100452.57;;;4.00;71.25
55044;BME280;54902;50.420;18.854;2023-03-15T02:13:53;100448.98;;;3.99;71.26
55044;BME280;54902;50.420;18.854;2023-03-15T02:14:25;100451.67;;;3.99;71.31
55044;BME280;54902;50.420;18.854;2023-03-15T02:14:58;100443.57;;;3.99;71.33
55044;BME280;54902;50.420;18.854;2023-03-15T02:15:30;100449.87;;;4.00;71.38
55044;BME280;54902;50.420;18.854;2023-03-15T02:16:02;100463.38;;;4.00;71.37
55044;BME280;54902;50.420;18.854;2023-03-15T02:16:37;100443.57;;;3.99;71.39
55044;BME280;54902;50.420;18.854;2023-03-15T02:17:08;100457.08;;;3.99;71.39
55044;BME280;54902;50.420;18.854;2023-03-15T02:17:42;100457.98;;;4.00;71.41
55044;BME280;54902;50.420;18.854;2023-03-15T02:18:15;100466.94;;;4.00;71.42
55044;BME280;54902;50.420;18.854;2023-03-15T02:18:46;100457.98;;;4.00;71.42
55044;BME280;54902;50.420;18.854;2023-03-15T02:19:41;100455.27;;;4.00;71.40
55044;BME280;54902;50.420;18.854;2023-03-15T02:20:57;100459.79;;;3.99;71.41
55044;BME280;54902;50.420;18.854;2023-03-15T02:23:00;100467.03;;;3.99;71.38
55044;BME280;54902;50.420;18.854;2023-03-15T02:23:02;100473.39;;;3.98;71.39
55044;BME280;54902;50.420;18.854;2023-03-15T02:23:35;100475.14;;;3.99;71.39
55044;BME280;54902;50.420;18.854;2023-03-15T02:24:17;100472.44;;;3.99;71.38
55044;BME280;54902;50.420;18.854;2023-03-15T02:26:23;100467.13;;;3.97;71.31
55044;BME280;54902;50.420;18.854;2023-03-15T02:26:56;100465.59;;;3.93;71.29
55044;BME280;54902;50.420;18.854;2023-03-15T02:27:29;100472.73;;;3.94;71.29
55044;BME280;54902;50.420;18.854;2023-03-15T02:28:05;100461.04;;;3.94;71.26
55044;BME280;54902;50.420;18.854;2023-03-15T02:28:38;100465.49;;;3.95;71.35
55044;BME280;54902;50.420;18.854;2023-03-15T02:29:10;100464.70;;;3.93;71.38
55044;BME280;54902;50.420;18.854;2023-03-15T02:29:41;100472.81;;;3.93;71.40
55044;BME280;54902;50.420;18.854;2023-03-15T02:30:13;100473.60;;;3.95;71.41
55044;BME280;54902;50.420;18.854;2023-03-15T02:30:45;100476.30;;;3.95;71.40
55044;BME280;54902;50.420;18.854;2023-03-15T02:31:16;100474.65;;;3.92;71.38
55044;BME280;54902;50.420;18.854;2023-03-15T02:31:48;100470.10;;;3.93;71.41
55044;BME280;54902;50.420;18.854;2023-03-15T02:32:19;100462.98;;;3.92;71.41
55044;BME280;54902;50.420;18.854;2023-03-15T02:32:50;100474.65;;;3.92;71.41
55044;BME280;54902;50.420;18.854;2023-03-15T02:33:28;100473.79;;;3.92;71.35
55044;BME280;54902;50.420;18.854;2023-03-15T02:33:59;100474.65;;;3.92;71.31
55044;BME280;54902;50.420;18.854;2023-03-15T02:34:32;100468.39;;;3.92;71.28
55044;BME280;54902;50.420;18.854;2023-03-15T02:35:03;100472.91;;;3.91;71.25
55044;BME280;54902;50.420;18.854;2023-03-15T02:35:34;100468.39;;;3.92;71.23
55044;BME280;54902;50.420;18.854;2023-03-15T02:36:45;100477.45;;;3.91;71.20
55044;BME280;54902;50.420;18.854;2023-03-15T02:37:16;100473.95;;;3.89;71.19
55044;BME280;54902;50.420;18.854;2023-03-15T02:37:47;100474.84;;;3.89;71.17
55044;BME280;54902;50.420;18.854;2023-03-15T02:38:17;100476.66;;;3.89;71.17
55044;BME280;54902;50.420;18.854;2023-03-15T02:38:49;100487.47;;;3.89;71.17
55044;BME280;54902;50.420;18.854;2023-03-15T02:39:22;100484.77;;;3.89;71.21
55044;BME280;54902;50.420;18.854;2023-03-15T02:39:54;100475.91;;;3.87;71.20
55044;BME280;54902;50.420;18.854;2023-03-15T02:40:29;100482.16;;;3.87;71.20
55044;BME280;54902;50.420;18.854;2023-03-15T02:41:00;100475.91;;;3.87;71.20
55044;BME280;54902;50.420;18.854;2023-03-15T02:41:36;100481.30;;;3.87;71.22
55044;BME280;54902;50.420;18.854;2023-03-15T02:42:09;100474.16;;;3.86;71.20
55044;BME280;54902;50.420;18.854;2023-03-15T02:42:40;100479.56;;;3.86;71.20
55044;BME280;54902;50.420;18.854;2023-03-15T02:43:15;100474.16;;;3.86;71.20
55044;BME280;54902;50.420;18.854;2023-03-15T02:43:52;100479.56;;;3.86;71.23
55044;BME280;54902;50.420;18.854;2023-03-15T02:44:30;100482.27;;;3.86;71.20
55044;BME280;54902;50.420;18.854;2023-03-15T02:45:02;100485.92;;;3.85;71.18
55044;BME280;54902;50.420;18.854;2023-03-15T02:45:36;100484.10;;;3.85;71.18
55044;BME280;54902;50.420;18.854;2023-03-15T02:46:09;100482.36;;;3.84;71.20
55044;BME280;54902;50.420;18.854;2023-03-15T02:46:42;100482.36;;;3.84;71.22
55044;BME280;54902;50.420;18.854;2023-03-15T02:47:18;100488.63;;;3.85;71.22
55044;BME280;54902;50.420;18.854;2023-03-15T02:47:50;100488.63;;;3.85;71.24
55044;BME280;54902;50.420;18.854;2023-03-15T02:48:21;100485.06;;;3.84;71.24
55044;BME280;54902;50.420;18.854;2023-03-15T02:48:52;100492.31;;;3.84;71.23
55044;BME280;54902;50.420;18.854;2023-03-15T02:49:27;100491.32;;;3.85;71.20
55044;BME280;54902;50.420;18.854;2023-03-15T02:50:00;100484.21;;;3.84;71.20
55044;BME280;54902;50.420;18.854;2023-03-15T02:50:31;100491.42;;;3.83;71.17
55044;BME280;54902;50.420;18.854;2023-03-15T02:51:02;100486.02;;;3.83;71.17
55044;BME280;54902;50.420;18.854;2023-03-15T02:51:33;100475.52;;;3.79;71.24
55044;BME280;54902;50.420;18.854;2023-03-15T02:52:04;100488.81;;;3.82;71.17
55044;BME280;54902;50.420;18.854;2023-03-15T02:52:35;100483.41;;;3.82;71.18
55044;BME280;54902;50.420;18.854;2023-03-15T02:53:06;100485.16;;;3.83;71.20
55044;BME280;54902;50.420;18.854;2023-03-15T02:53:37;100495.08;;;3.82;71.23
55044;BME280;54902;50.420;18.854;2023-03-15T02:54:08;100495.08;;;3.82;71.21
55044;BME280;54902;50.420;18.854;2023-03-15T02:54:39;100488.81;;;3.82;71.21
55044;BME280;54902;50.420;18.854;2023-03-15T02:55:13;100493.37;;;3.81;71.23
55044;BME280;54902;50.420;18.854;2023-03-15T02:55:44;100496.06;;;3.81;71.22
55044;BME280;54902;50.420;18.854;2023-03-15T02:56:15;100499.63;;;3.82;71.19
55044;BME280;54902;50.420;18.854;2023-03-15T02:56:46;100505.03;;;3.82;71.19
55044;BME280;54902;50.420;18.854;2023-03-15T02:57:18;100506.87;;;3.81;71.19
55044;BME280;54902;50.420;18.854;2023-03-15T02:57:50;100508.67;;;3.81;71.17
55044;BME280;54902;50.420;18.854;2023-03-15T02:58:21;100509.57;;;3.81;71.17
55044;BME280;54902;50.420;18.854;2023-03-15T02:58:52;100503.28;;;3.81;71.19
55044;BME280;54902;50.420;18.854;2023-03-15T02:59:22;100502.42;;;3.80;71.22
55044;BME280;54902;50.420;18.854;2023-03-15T02:59:53;100494.32;;;3.80;71.19
55044;BME280;54902;50.420;18.854;2023-03-15T03:00:27;100503.28;;;3.81;71.17